Pagrindinis puslapis
METAR-TAF:

METAR-TAF

Oro uostai :

Reikjavikas, Islandija

platuma: 64-08N, ilguma: 021-54W, Aukštis: 54 m

Dabartinis oras

Ataskaita buvo paskelbta 12 minutes, ne 22:00 UTC
Vėjas 4 kt iš Šiaurės
Temperatūra 7°C
Drėgmė 70%
Slėgis 1019 hPa
Matomumas 10 km arba daugiau
Mažai debesys ne aukštis 2800 ft
Išsisklaidę debesys ne aukštis 4200 ft

METAR: BIRK 162200Z 36004KT 9999 FEW028 SCT042 07/02 Q1019

Laikas: 22:12 (22:12 UTC)

Prognozė

Ataskaita buvo paskelbta 2 valandos ir 12 minutes, ne 20:00 UTC
Prognozė galioja nuo 16 metu 21 UTC su 17 metu 21 UTC
Vėjas 6 kt iš Šiaurės Vakarų
Matomumas 10 km arba daugiau
Mažai debesys ne aukštis 2500 ft
Su prošvaistėmis ne aukštis 3500 ft
Tikimybė 40% :
Laikinai
nuo 16 metu 21 UTC su 17 metu 03 UTC
Su prošvaistėmis ne aukštis 1500 ft
lietus
Tapsmas
nuo 17 metu 18 UTC su 17 metu 21 UTC
Vėjas 10 kt iš Rytų

TAF: BIRK 162000Z 1621/1721 31006KT 9999 FEW025 BKN035 TX09/1715Z TN04/1706Z PROB40 TEMPO 1621/1703 -SHRA BKN015 BECMG 1718/1721 10010KT

Orai ataskaitas ir orų prognozės (METAR, TAF).

turimą stotys yra geltonos ir raudonos taškus žemėlapyje.

Perkelti pele per norėdami pamatyti stoties vardą.

Tada spustelėkite, norėdami matyti oro stebėjimo ir prognozės.

Norėdami pakeisti žemėlapį: spustelėkite ant žalios mygtukų su juodo kryžiaus žemyn,; žalią mygtuką su brūkšneliu, jei norite nutolinti; arba žalių rodyklių gretimoms žemėlapius.


METAR-TAF: